createdAt,value
2023-03-28T00:01:09.772Z,21.88
2023-03-28T00:03:40.074Z,18.95
2023-03-28T00:06:13.311Z,19.10
2023-03-28T00:08:42.210Z,19.95
2023-03-28T00:11:12.759Z,20.40
2023-03-28T00:13:41.593Z,20.15
2023-03-28T00:16:12.958Z,19.52
2023-03-28T00:18:42.835Z,23.52
2023-03-28T00:21:23.656Z,23.08
2023-03-28T00:23:53.616Z,24.92
2023-03-28T00:26:24.838Z,21.48
2023-03-28T00:28:53.815Z,25.52
2023-03-28T00:31:22.298Z,23.50
2023-03-28T00:33:50.921Z,22.10
2023-03-28T00:36:23.069Z,27.13
2023-03-28T00:38:52.469Z,28.00
2023-03-28T00:41:21.975Z,24.17
2023-03-28T00:43:53.268Z,24.83
2023-03-28T00:46:23.699Z,23.80
2023-03-28T00:48:54.248Z,28.60
2023-03-28T00:51:27.133Z,21.30
2023-03-28T00:53:58.195Z,22.88
2023-03-28T00:56:29.905Z,22.92
2023-03-28T00:58:59.139Z,20.77
2023-03-28T01:01:28.432Z,24.38
2023-03-28T01:04:03.137Z,24.70
2023-03-28T01:06:34.844Z,20.95
2023-03-28T01:09:06.878Z,18.58
2023-03-28T01:11:38.267Z,19.50
2023-03-28T01:14:07.951Z,17.48
2023-03-28T01:16:41.973Z,19.55
2023-03-28T01:19:15.237Z,21.15
2023-03-28T01:22:07.364Z,19.30
2023-03-28T01:25:14.703Z,18.98
2023-03-28T01:27:45.781Z,19.70
2023-03-28T01:30:32.150Z,22.33
2023-03-28T01:33:21.523Z,21.70
2023-03-28T01:36:33.997Z,18.55
2023-03-28T01:39:09.455Z,18.38
2023-03-28T01:41:43.305Z,22.15
2023-03-28T01:44:16.283Z,19.98
2023-03-28T01:46:47.296Z,21.55
2023-03-28T01:49:21.860Z,16.63
2023-03-28T01:51:58.657Z,18.92
2023-03-28T01:54:32.184Z,16.75
2023-03-28T01:57:06.003Z,18.92
2023-03-28T01:59:37.188Z,17.40
2023-03-28T02:02:09.423Z,16.98
2023-03-28T02:04:38.607Z,17.67
2023-03-28T02:07:09.062Z,16.08
2023-03-28T02:09:40.255Z,20.05
2023-03-28T02:12:13.478Z,17.10
2023-03-28T02:14:43.523Z,17.65
2023-03-28T02:17:16.829Z,16.02
2023-03-28T02:19:48.241Z,17.00
2023-03-28T02:22:21.243Z,14.77
2023-03-28T02:24:53.143Z,16.30
2023-03-28T02:27:22.819Z,17.85
2023-03-28T02:29:54.537Z,17.60
2023-03-28T02:32:23.934Z,15.93
2023-03-28T02:34:54.796Z,16.63
2023-03-28T02:37:32.720Z,21.05
2023-03-28T02:40:17.431Z,16.73
2023-03-28T02:43:12.601Z,15.05
2023-03-28T02:46:04.900Z,17.38
2023-03-28T02:48:41.963Z,17.00
2023-03-28T02:51:17.691Z,18.65
2023-03-28T02:53:53.837Z,21.98
2023-03-28T02:56:29.655Z,17.55
2023-03-28T02:58:59.911Z,17.60
2023-03-28T03:01:29.419Z,20.33
2023-03-28T03:03:58.588Z,23.38
2023-03-28T03:06:27.001Z,15.50
2023-03-28T03:08:55.515Z,18.67
2023-03-28T03:11:28.199Z,16.35
2023-03-28T03:13:57.492Z,18.80
2023-03-28T03:16:25.950Z,16.83
2023-03-28T03:18:54.432Z,22.92
2023-03-28T03:21:23.797Z,14.80
2023-03-28T03:23:52.395Z,17.17
2023-03-28T03:26:20.876Z,17.38
2023-03-28T03:28:50.721Z,12.93
2023-03-28T03:31:19.815Z,13.02
2023-03-28T03:33:48.684Z,16.95
2023-03-28T03:36:17.480Z,15.68
2023-03-28T03:38:45.977Z,17.63
2023-03-28T03:41:14.231Z,18.98
2023-03-28T03:43:43.540Z,16.30
2023-03-28T03:46:14.297Z,15.55
2023-03-28T03:48:49.499Z,15.05
2023-03-28T03:51:18.765Z,15.73
2023-03-28T03:53:50.661Z,14.95
2023-03-28T03:56:18.987Z,14.52
2023-03-28T03:58:47.536Z,14.82
2023-03-28T04:01:17.196Z,16.25
2023-03-28T04:03:48.224Z,16.23
2023-03-28T04:06:16.564Z,13.57
2023-03-28T04:08:45.040Z,12.32
2023-03-28T04:11:13.228Z,13.15
2023-03-28T04:13:41.774Z,14.75
2023-03-28T04:16:11.957Z,15.18
2023-03-28T04:18:42.125Z,12.95
2023-03-28T04:21:10.485Z,14.00
2023-03-28T04:23:43.700Z,14.57
2023-03-28T04:26:20.643Z,12.63
2023-03-28T04:28:49.168Z,13.75
2023-03-28T04:31:17.490Z,13.48
2023-03-28T04:33:47.554Z,13.48
2023-03-28T04:36:16.867Z,13.02
2023-03-28T04:38:46.778Z,12.80
2023-03-28T04:41:16.921Z,15.68
2023-03-28T04:43:45.708Z,17.87
2023-03-28T04:46:14.060Z,16.60
2023-03-28T04:48:42.613Z,13.68
2023-03-28T04:51:12.374Z,14.65
2023-03-28T04:53:40.992Z,12.85
2023-03-28T04:56:14.088Z,10.68
2023-03-28T04:58:42.808Z,12.18
2023-03-28T05:01:11.862Z,10.45
2023-03-28T05:03:40.493Z,14.13
2023-03-28T05:06:10.853Z,10.52
2023-03-28T05:08:43.875Z,13.40
2023-03-28T05:11:12.529Z,12.70
2023-03-28T05:13:41.112Z,12.55
2023-03-28T05:16:09.742Z,11.77
2023-03-28T05:18:38.252Z,14.65
2023-03-28T05:21:07.389Z,13.98
2023-03-28T05:23:36.092Z,12.20
2023-03-28T05:26:06.732Z,11.82
2023-03-28T05:28:35.961Z,10.52
2023-03-28T05:31:06.641Z,11.90
2023-03-28T05:33:35.848Z,15.63
2023-03-28T05:36:04.675Z,9.98
2023-03-28T05:38:33.877Z,13.27
2023-03-28T05:41:03.362Z,14.57
2023-03-28T05:43:33.261Z,15.13
2023-03-28T05:46:01.719Z,11.77
2023-03-28T05:48:31.897Z,16.02
2023-03-28T05:51:00.602Z,13.15
2023-03-28T05:53:29.315Z,10.48
2023-03-28T05:55:57.584Z,14.68
2023-03-28T05:58:26.084Z,13.57
2023-03-28T06:00:56.850Z,17.17
2023-03-28T06:03:25.980Z,12.30
2023-03-28T06:05:54.410Z,15.00
2023-03-28T06:08:22.952Z,13.25
2023-03-28T06:10:51.265Z,12.57
2023-03-28T06:13:19.753Z,14.30
2023-03-28T06:15:47.938Z,16.73
2023-03-28T06:18:17.920Z,15.32
2023-03-28T06:20:46.254Z,21.25
2023-03-28T06:23:14.793Z,17.63
2023-03-28T06:25:43.049Z,19.23
2023-03-28T06:28:11.690Z,22.30
2023-03-28T06:30:41.156Z,12.68
2023-03-28T06:33:09.867Z,16.83
2023-03-28T06:35:39.446Z,10.10
2023-03-28T06:38:08.069Z,13.95
2023-03-28T06:40:38.887Z,27.27
2023-03-28T06:43:07.398Z,22.90
2023-03-28T06:45:35.619Z,27.52
2023-03-28T06:48:04.304Z,15.02
2023-03-28T06:50:32.546Z,10.68
2023-03-28T06:53:02.685Z,11.95
2023-03-28T06:55:30.878Z,19.08
2023-03-28T06:57:59.475Z,18.75
2023-03-28T07:00:27.825Z,9.73
2023-03-28T07:02:56.618Z,11.10
2023-03-28T07:05:25.087Z,11.73
2023-03-28T07:07:53.628Z,10.13
2023-03-28T07:10:23.657Z,12.15
2023-03-28T07:12:52.218Z,9.98
2023-03-28T07:15:20.638Z,11.98
2023-03-28T07:17:49.096Z,8.90
2023-03-28T07:20:17.471Z,6.90
2023-03-28T07:22:46.134Z,12.18
2023-03-28T07:25:14.406Z,10.43
2023-03-28T07:27:44.362Z,5.93
2023-03-28T07:30:13.767Z,4.20
2023-03-28T07:32:54.325Z,4.32
2023-03-28T07:35:28.320Z,7.72
2023-03-28T07:37:57.655Z,7.20
2023-03-28T07:40:26.300Z,8.20
2023-03-28T07:42:56.263Z,8.88
2023-03-28T07:45:24.582Z,6.50
2023-03-28T07:47:53.253Z,9.07
2023-03-28T07:50:25.046Z,7.65
2023-03-28T07:52:57.681Z,6.75
2023-03-28T07:55:26.675Z,9.73
2023-03-28T07:57:56.637Z,4.70
2023-03-28T08:00:25.227Z,3.03
2023-03-28T08:02:53.851Z,6.00
2023-03-28T08:05:24.278Z,7.38
2023-03-28T08:07:53.969Z,4.85
2023-03-28T08:10:22.506Z,5.53
2023-03-28T08:12:51.165Z,7.85
2023-03-28T08:15:21.055Z,8.18
2023-03-28T08:17:49.830Z,11.20
2023-03-28T08:20:19.779Z,11.23
2023-03-28T08:22:48.582Z,13.20
2023-03-28T08:25:16.966Z,5.65
2023-03-28T08:27:45.612Z,5.47
2023-03-28T08:30:14.554Z,6.93
2023-03-28T08:32:46.271Z,4.75
2023-03-28T08:35:16.707Z,4.90
2023-03-28T08:37:48.038Z,5.75
2023-03-28T08:40:19.701Z,6.65
2023-03-28T08:43:01.670Z,6.00
2023-03-28T08:45:38.486Z,6.57
2023-03-28T08:48:18.983Z,9.15
2023-03-28T08:50:49.542Z,5.72
2023-03-28T08:53:26.630Z,8.23
2023-03-28T08:55:55.210Z,4.75
2023-03-28T08:58:25.181Z,5.72
2023-03-28T09:01:12.502Z,5.40
2023-03-28T09:03:47.811Z,7.38
2023-03-28T09:06:37.303Z,4.93
2023-03-28T09:09:38.565Z,7.82
2023-03-28T09:12:39.020Z,5.00
2023-03-28T09:18:38.309Z,5.40
2023-03-28T09:21:15.217Z,7.75
2023-03-28T09:24:09.965Z,4.60
2023-03-28T09:26:48.855Z,4.53
2023-03-28T09:29:28.580Z,8.25
2023-03-28T09:32:17.663Z,6.85
2023-03-28T09:34:57.618Z,4.60
2023-03-28T09:37:49.274Z,3.78
2023-03-28T09:40:42.815Z,5.10
2023-03-28T09:43:17.123Z,4.00
2023-03-28T09:46:03.253Z,5.60
2023-03-28T09:48:49.109Z,5.25
2023-03-28T09:51:19.899Z,5.28
2023-03-28T09:53:59.535Z,5.18
2023-03-28T09:56:38.566Z,9.05
2023-03-28T09:59:17.022Z,9.15
2023-03-28T10:02:00.332Z,8.20
2023-03-28T10:04:54.077Z,8.68
2023-03-28T10:07:42.815Z,4.82
2023-03-28T10:10:25.375Z,4.18
2023-03-28T10:13:03.528Z,8.40
2023-03-28T10:15:41.037Z,8.48
2023-03-28T10:18:40.772Z,26.80
2023-03-28T10:21:21.413Z,19.17
2023-03-28T10:24:04.598Z,7.97
2023-03-28T10:26:41.415Z,6.28
2023-03-28T10:29:18.524Z,5.40
2023-03-28T10:31:54.003Z,2.78
2023-03-28T10:34:35.543Z,2.67
2023-03-28T10:40:01.605Z,3.38
2023-03-28T10:42:55.651Z,4.70
2023-03-28T10:45:38.671Z,4.53
2023-03-28T10:48:27.598Z,2.75
2023-03-28T10:51:12.593Z,2.67
2023-03-28T10:54:16.503Z,3.85
2023-03-28T10:57:04.914Z,4.20
2023-03-28T10:59:54.653Z,8.98
2023-03-28T11:02:50.417Z,7.32
2023-03-28T11:05:32.315Z,8.10
2023-03-28T11:08:39.980Z,5.63
2023-03-28T11:11:32.133Z,3.83
2023-03-28T11:16:52.062Z,7.05
2023-03-28T11:20:06.661Z,5.18
2023-03-28T11:23:04.728Z,4.75
2023-03-28T11:25:52.234Z,4.68
2023-03-28T11:28:46.067Z,2.58
2023-03-28T11:31:26.029Z,4.00
2023-03-28T11:34:04.976Z,3.08
2023-03-28T11:37:00.320Z,4.85
2023-03-28T11:39:39.355Z,3.85
2023-03-28T11:42:28.997Z,3.97
2023-03-28T11:45:03.447Z,4.07
2023-03-28T11:47:34.650Z,7.72
2023-03-28T11:50:24.109Z,4.85
2023-03-28T11:53:11.373Z,8.13
2023-03-28T11:55:44.170Z,4.30
2023-03-28T11:58:19.470Z,4.43
2023-03-28T12:01:02.705Z,4.35
2023-03-28T12:03:49.111Z,5.38
2023-03-28T12:06:34.313Z,3.00
2023-03-28T12:09:17.014Z,2.88
2023-03-28T12:11:58.075Z,6.63
2023-03-28T12:14:42.536Z,12.63
2023-03-28T12:17:24.120Z,17.10
2023-03-28T12:19:56.767Z,9.13
2023-03-28T12:22:34.477Z,8.77
2023-03-28T12:25:12.194Z,4.85
2023-03-28T12:27:55.040Z,7.28
2023-03-28T12:30:26.507Z,5.35
2023-03-28T12:33:01.564Z,3.58
2023-03-28T12:35:35.660Z,4.00
2023-03-28T12:38:14.422Z,3.92
2023-03-28T12:40:52.454Z,7.68
2023-03-28T12:43:24.968Z,5.45
2023-03-28T12:45:57.565Z,5.13
2023-03-28T12:48:33.402Z,3.72
2023-03-28T12:51:06.539Z,4.88
2023-03-28T12:53:44.674Z,4.88
2023-03-28T12:56:15.206Z,4.43
2023-03-28T12:58:46.821Z,4.18
2023-03-28T13:03:56.762Z,4.10
2023-03-28T13:06:30.144Z,4.75
2023-03-28T13:09:13.059Z,8.93
2023-03-28T13:11:45.926Z,6.53
2023-03-28T13:14:33.669Z,5.05
2023-03-28T13:17:03.708Z,7.13
2023-03-28T13:19:39.587Z,6.70
2023-03-28T13:22:26.459Z,5.07
2023-03-28T13:25:29.021Z,2.92
2023-03-28T13:27:58.084Z,3.85
2023-03-28T13:30:28.952Z,3.53
2023-03-28T13:32:58.858Z,3.47
2023-03-28T13:35:47.377Z,2.38
2023-03-28T13:38:33.579Z,2.97
2023-03-28T13:41:06.675Z,3.75
2023-03-28T13:43:42.799Z,4.70
2023-03-28T13:46:16.279Z,6.22
2023-03-28T13:48:49.670Z,3.13
2023-03-28T13:51:20.936Z,4.80
2023-03-28T13:53:49.812Z,5.40
2023-03-28T13:56:24.465Z,4.25
2023-03-28T13:58:55.706Z,3.00
2023-03-28T14:01:26.282Z,5.55
2023-03-28T14:03:56.008Z,3.58
2023-03-28T14:06:25.870Z,8.32
2023-03-28T14:08:56.697Z,7.30
2023-03-28T14:11:30.459Z,7.78
2023-03-28T14:14:06.068Z,8.23
2023-03-28T14:16:36.145Z,9.18
2023-03-28T14:19:05.187Z,9.93
2023-03-28T14:21:34.594Z,10.68
2023-03-28T14:24:04.275Z,12.27
2023-03-28T14:26:36.792Z,8.68
2023-03-28T14:29:08.445Z,9.52
2023-03-28T14:31:40.411Z,8.05
2023-03-28T14:34:18.266Z,7.80
2023-03-28T14:37:01.295Z,9.07
2023-03-28T14:39:31.468Z,7.80
2023-03-28T14:42:03.927Z,9.73
2023-03-28T14:44:36.582Z,10.88
2023-03-28T14:47:05.439Z,8.07
2023-03-28T14:49:34.330Z,8.95
2023-03-28T14:52:03.675Z,7.72
2023-03-28T14:54:34.675Z,9.20
2023-03-28T14:57:06.189Z,6.78
2023-03-28T14:59:37.725Z,6.75
2023-03-28T15:02:07.067Z,8.75
2023-03-28T15:04:35.999Z,8.02
2023-03-28T15:07:05.184Z,7.43
2023-03-28T15:09:34.624Z,9.38
2023-03-28T15:12:08.065Z,6.43
2023-03-28T15:14:39.936Z,5.07
2023-03-28T15:17:09.292Z,9.13
2023-03-28T15:19:38.851Z,7.85
2023-03-28T15:22:11.655Z,5.80
2023-03-28T15:24:40.625Z,4.90
2023-03-28T15:27:21.366Z,3.78
2023-03-28T15:29:49.744Z,5.93
2023-03-28T15:32:20.412Z,7.68
2023-03-28T15:34:55.273Z,6.45
2023-03-28T15:37:27.305Z,9.95
2023-03-28T15:39:55.772Z,9.73
2023-03-28T15:42:36.621Z,18.48
2023-03-28T15:45:22.498Z,11.47
2023-03-28T15:47:54.203Z,12.48
2023-03-28T15:52:58.748Z,15.32
2023-03-28T15:55:27.886Z,11.30
2023-03-28T15:57:58.378Z,11.25
2023-03-28T16:00:47.431Z,8.55
2023-03-28T16:03:34.620Z,8.25
2023-03-28T16:06:23.046Z,8.15
2023-03-28T16:09:14.499Z,10.05
2023-03-28T16:11:42.878Z,13.02
2023-03-28T16:14:15.600Z,16.88
2023-03-28T16:16:44.076Z,15.38
2023-03-28T16:19:17.650Z,16.70
2023-03-28T16:21:46.192Z,16.27
2023-03-28T16:24:15.088Z,18.42
2023-03-28T16:26:43.424Z,32.35
2023-03-28T16:29:12.546Z,53.97
2023-03-28T16:31:43.972Z,11.88
2023-03-28T16:34:12.640Z,14.98
2023-03-28T16:36:41.154Z,13.25
2023-03-28T16:39:09.812Z,13.40
2023-03-28T16:41:38.350Z,14.63
2023-03-28T16:44:06.979Z,12.80
2023-03-28T16:46:35.656Z,13.23
2023-03-28T16:49:05.808Z,16.52
2023-03-28T16:51:34.111Z,12.93
2023-03-28T16:54:02.801Z,13.68
2023-03-28T16:56:31.521Z,13.60
2023-03-28T16:59:00.391Z,13.75
2023-03-28T17:01:28.707Z,12.73
2023-03-28T17:03:57.468Z,12.85
2023-03-28T17:06:27.783Z,7.78
2023-03-28T17:08:56.374Z,8.63
2023-03-28T17:11:24.700Z,7.88
2023-03-28T17:13:54.665Z,8.48
2023-03-28T17:16:23.178Z,9.13
2023-03-28T17:18:51.873Z,5.22
2023-03-28T17:21:20.753Z,8.38
2023-03-28T17:23:52.841Z,8.88
2023-03-28T17:26:21.734Z,8.80
2023-03-28T17:28:51.809Z,9.07
2023-03-28T17:31:21.892Z,11.02
2023-03-28T17:33:50.756Z,27.73
2023-03-28T17:36:22.052Z,36.85
2023-03-28T17:38:53.414Z,22.77
2023-03-28T17:41:23.288Z,25.13
2023-03-28T17:43:52.481Z,30.95
2023-03-28T17:46:21.476Z,26.63
2023-03-28T17:48:50.837Z,23.00
2023-03-28T17:51:19.292Z,17.90
2023-03-28T17:53:47.941Z,15.25
2023-03-28T17:56:17.919Z,18.65
2023-03-28T17:58:46.724Z,15.25
2023-03-28T18:01:17.029Z,18.77
2023-03-28T18:03:46.078Z,13.00
2023-03-28T18:06:14.592Z,14.52
2023-03-28T18:08:44.844Z,11.65
2023-03-28T18:11:15.544Z,14.70
2023-03-28T18:13:45.758Z,12.38
2023-03-28T18:16:15.729Z,12.27
2023-03-28T18:18:44.892Z,8.77
2023-03-28T18:21:13.121Z,11.68
2023-03-28T18:23:42.689Z,15.55
2023-03-28T18:26:12.199Z,10.65
2023-03-28T18:28:41.173Z,9.30
2023-03-28T18:31:12.855Z,14.00
2023-03-28T18:33:43.009Z,15.60
2023-03-28T18:36:12.412Z,11.20
2023-03-28T18:38:42.414Z,13.48
2023-03-28T18:41:12.755Z,9.82
2023-03-28T18:43:42.530Z,12.18
2023-03-28T18:46:16.006Z,10.63
2023-03-28T18:48:45.622Z,8.05
2023-03-28T18:51:14.118Z,7.85
2023-03-28T18:53:43.308Z,29.42
2023-03-28T18:56:13.692Z,19.30
2023-03-28T18:58:43.951Z,8.25
2023-03-28T19:01:13.884Z,8.57
2023-03-28T19:03:43.164Z,8.85
2023-03-28T19:06:13.548Z,8.20
2023-03-28T19:08:42.152Z,6.53
2023-03-28T19:11:13.474Z,9.85
2023-03-28T19:13:42.740Z,6.55
2023-03-28T19:16:13.767Z,8.07
2023-03-28T19:21:11.900Z,9.45
2023-03-28T19:23:41.367Z,7.55
2023-03-28T19:26:11.236Z,9.07
2023-03-28T19:28:40.007Z,8.23
2023-03-28T19:31:10.133Z,10.30
2023-03-28T19:33:41.038Z,7.63
2023-03-28T19:36:09.799Z,15.98
2023-03-28T19:38:39.513Z,13.43
2023-03-28T19:41:16.992Z,10.13
2023-03-28T19:43:46.132Z,14.63
2023-03-28T19:46:17.003Z,8.93
2023-03-28T19:51:15.624Z,11.85
2023-03-28T19:53:44.310Z,18.63
2023-03-28T19:56:14.106Z,32.28
2023-03-28T19:58:45.357Z,34.20
2023-03-28T20:01:13.811Z,34.72
2023-03-28T20:03:42.426Z,27.80
2023-03-28T20:06:14.698Z,28.45
2023-03-28T20:08:43.419Z,34.30
2023-03-28T20:11:12.765Z,27.23
2023-03-28T20:13:42.091Z,28.67
2023-03-28T20:16:12.104Z,31.00
2023-03-28T20:18:41.093Z,28.58
2023-03-28T20:21:12.240Z,24.58
2023-03-28T20:23:41.126Z,26.13
2023-03-28T20:26:14.661Z,32.67
2023-03-28T20:28:46.414Z,27.15
2023-03-28T20:31:15.894Z,25.02
2023-03-28T20:33:45.229Z,31.52
2023-03-28T20:36:14.815Z,22.73
2023-03-28T20:38:43.402Z,33.97
2023-03-28T20:41:12.564Z,18.53
2023-03-28T20:43:46.675Z,16.25
2023-03-28T20:46:18.453Z,17.08
2023-03-28T20:48:48.174Z,15.95
2023-03-28T20:51:18.866Z,17.17
2023-03-28T20:53:49.678Z,19.73
2023-03-28T20:56:19.046Z,19.95
2023-03-28T20:58:48.003Z,15.93
2023-03-28T21:01:17.719Z,21.73
2023-03-28T21:03:51.094Z,20.85
2023-03-28T21:06:22.520Z,24.52
2023-03-28T21:08:52.701Z,27.30
2023-03-28T21:11:23.797Z,28.58
2023-03-28T21:13:52.370Z,26.27
2023-03-28T21:16:21.278Z,24.23
2023-03-28T21:18:50.022Z,23.52
2023-03-28T21:21:20.983Z,30.45
2023-03-28T21:23:50.095Z,26.45
2023-03-28T21:26:19.759Z,24.00
2023-03-28T21:28:48.876Z,30.38
2023-03-28T21:31:19.960Z,27.65
2023-03-28T21:33:49.115Z,24.13
2023-03-28T21:36:19.146Z,18.83
2023-03-28T21:38:49.511Z,21.63
2023-03-28T21:41:17.923Z,23.50
2023-03-28T21:43:47.700Z,20.55
2023-03-28T21:46:18.640Z,24.15
2023-03-28T21:48:48.087Z,24.38
2023-03-28T21:51:17.914Z,26.17
2023-03-28T21:53:48.366Z,26.13
2023-03-28T21:56:16.876Z,28.30
2023-03-28T21:58:45.459Z,26.00
2023-03-28T22:01:15.054Z,25.77
2023-03-28T22:03:45.632Z,29.10
2023-03-28T22:06:14.089Z,23.15
2023-03-28T22:08:43.413Z,24.60
2023-03-28T22:11:14.870Z,27.98
2023-03-28T22:13:45.001Z,27.65
2023-03-28T22:16:14.329Z,23.40
2023-03-28T22:18:50.399Z,18.05
2023-03-28T22:21:18.741Z,24.63
2023-03-28T22:23:47.803Z,21.45
2023-03-28T22:26:18.016Z,27.55
2023-03-28T22:28:46.696Z,21.20
2023-03-28T22:31:17.100Z,19.10
2023-03-28T22:33:45.707Z,20.58
2023-03-28T22:36:14.001Z,23.88
2023-03-28T22:38:42.564Z,20.38
2023-03-28T22:41:11.158Z,17.63
2023-03-28T22:43:42.897Z,20.73
2023-03-28T22:46:12.683Z,24.58
2023-03-28T22:48:42.132Z,26.15
2023-03-28T22:51:12.063Z,28.40
2023-03-28T22:53:41.244Z,24.27
2023-03-28T22:56:12.591Z,23.45
2023-03-28T22:58:42.714Z,23.15
2023-03-28T23:01:10.964Z,23.35
2023-03-28T23:03:39.519Z,21.25
2023-03-28T23:06:08.415Z,19.83
2023-03-28T23:08:37.618Z,21.40
2023-03-28T23:11:06.921Z,27.83
2023-03-28T23:13:35.465Z,24.30
2023-03-28T23:16:05.820Z,28.02
2023-03-28T23:18:34.306Z,25.42
2023-03-28T23:21:02.749Z,25.10
2023-03-28T23:23:32.401Z,26.10
2023-03-28T23:26:00.882Z,22.15
2023-03-28T23:28:29.417Z,19.95
2023-03-28T23:30:57.706Z,26.70
2023-03-28T23:33:27.641Z,43.47
2023-03-28T23:35:56.357Z,35.17
2023-03-28T23:38:24.937Z,31.73
2023-03-28T23:40:53.105Z,25.38
2023-03-28T23:43:21.702Z,25.13
2023-03-28T23:45:50.036Z,28.60
2023-03-28T23:48:18.470Z,32.83
2023-03-28T23:50:48.151Z,25.85
2023-03-28T23:53:16.714Z,23.23
2023-03-28T23:55:45.120Z,25.60
2023-03-28T23:58:13.698Z,26.30
